sensor_id;sensor_type;location;lat;lon;timestamp;P1;durP1;ratioP1;P2;durP2;ratioP2
74177;SDS011;62540;48.456;-4.456;2022-09-30T00:01:25;2.00;;;2.00;;
74177;SDS011;62540;48.456;-4.456;2022-09-30T00:03:55;1.50;;;1.50;;
74177;SDS011;62540;48.456;-4.456;2022-09-30T00:06:22;3.25;;;2.00;;
74177;SDS011;62540;48.456;-4.456;2022-09-30T00:08:48;3.00;;;3.00;;
74177;SDS011;62540;48.456;-4.456;2022-09-30T00:11:18;4.00;;;4.00;;
74177;SDS011;62540;48.456;-4.456;2022-09-30T00:13:46;5.75;;;4.00;;
74177;SDS011;62540;48.456;-4.456;2022-09-30T00:16:15;6.25;;;5.00;;
74177;SDS011;62540;48.456;-4.456;2022-09-30T00:18:41;4.75;;;3.75;;
74177;SDS011;62540;48.456;-4.456;2022-09-30T00:21:07;5.00;;;4.00;;
74177;SDS011;62540;48.456;-4.456;2022-09-30T00:23:35;4.25;;;4.25;;
74177;SDS011;62540;48.456;-4.456;2022-09-30T00:26:03;4.25;;;4.00;;
74177;SDS011;62540;48.456;-4.456;2022-09-30T00:28:30;4.50;;;4.00;;
74177;SDS011;62540;48.456;-4.456;2022-09-30T00:31:00;3.00;;;3.00;;
74177;SDS011;62540;48.456;-4.456;2022-09-30T00:33:27;6.50;;;4.00;;
74177;SDS011;62540;48.456;-4.456;2022-09-30T00:35:53;4.25;;;3.50;;
74177;SDS011;62540;48.456;-4.456;2022-09-30T00:38:18;3.25;;;3.25;;
74177;SDS011;62540;48.456;-4.456;2022-09-30T00:40:44;3.00;;;2.00;;
74177;SDS011;62540;48.456;-4.456;2022-09-30T00:43:14;3.75;;;3.50;;
74177;SDS011;62540;48.456;-4.456;2022-09-30T00:48:20;2.25;;;2.00;;
74177;SDS011;62540;48.456;-4.456;2022-09-30T00:50:56;2.50;;;2.50;;
74177;SDS011;62540;48.456;-4.456;2022-09-30T00:56:07;3.50;;;2.00;;
74177;SDS011;62540;48.456;-4.456;2022-09-30T00:58:37;2.50;;;1.25;;
74177;SDS011;62540;48.456;-4.456;2022-09-30T01:01:03;1.00;;;1.00;;
74177;SDS011;62540;48.456;-4.456;2022-09-30T01:03:33;2.75;;;2.50;;
74177;SDS011;62540;48.456;-4.456;2022-09-30T01:06:02;2.75;;;2.75;;
74177;SDS011;62540;48.456;-4.456;2022-09-30T01:08:28;3.00;;;3.00;;
74177;SDS011;62540;48.456;-4.456;2022-09-30T01:10:56;4.00;;;3.00;;
74177;SDS011;62540;48.456;-4.456;2022-09-30T01:13:22;2.25;;;2.00;;
74177;SDS011;62540;48.456;-4.456;2022-09-30T01:15:54;3.00;;;2.00;;
74177;SDS011;62540;48.456;-4.456;2022-09-30T01:18:29;1.50;;;1.50;;
74177;SDS011;62540;48.456;-4.456;2022-09-30T01:23:46;3.25;;;3.00;;
74177;SDS011;62540;48.456;-4.456;2022-09-30T01:32:01;2.00;;;2.00;;
74177;SDS011;62540;48.456;-4.456;2022-09-30T01:37:09;1.50;;;1.50;;
74177;SDS011;62540;48.456;-4.456;2022-09-30T01:42:23;1.50;;;1.50;;
74177;SDS011;62540;48.456;-4.456;2022-09-30T01:50:04;3.00;;;3.00;;
74177;SDS011;62540;48.456;-4.456;2022-09-30T01:55:18;1.75;;;1.00;;
74177;SDS011;62540;48.456;-4.456;2022-09-30T01:57:59;2.00;;;2.00;;
74177;SDS011;62540;48.456;-4.456;2022-09-30T02:00:34;2.25;;;1.00;;
74177;SDS011;62540;48.456;-4.456;2022-09-30T02:03:05;2.75;;;2.00;;
74177;SDS011;62540;48.456;-4.456;2022-09-30T02:05:39;2.50;;;2.50;;
74177;SDS011;62540;48.456;-4.456;2022-09-30T02:08:20;2.00;;;1.00;;
74177;SDS011;62540;48.456;-4.456;2022-09-30T02:11:01;3.25;;;3.25;;
74177;SDS011;62540;48.456;-4.456;2022-09-30T02:13:42;2.00;;;2.00;;
74177;SDS011;62540;48.456;-4.456;2022-09-30T02:16:14;4.00;;;3.00;;
74177;SDS011;62540;48.456;-4.456;2022-09-30T02:18:47;1.75;;;1.75;;
74177;SDS011;62540;48.456;-4.456;2022-09-30T02:21:19;2.50;;;2.00;;
74177;SDS011;62540;48.456;-4.456;2022-09-30T02:23:48;2.25;;;1.00;;
74177;SDS011;62540;48.456;-4.456;2022-09-30T02:26:23;3.00;;;1.50;;
74177;SDS011;62540;48.456;-4.456;2022-09-30T02:29:26;2.00;;;1.75;;
74177;SDS011;62540;48.456;-4.456;2022-09-30T02:31:54;5.25;;;2.25;;
74177;SDS011;62540;48.456;-4.456;2022-09-30T02:34:27;2.25;;;2.25;;
74177;SDS011;62540;48.456;-4.456;2022-09-30T02:37:02;2.75;;;2.75;;
74177;SDS011;62540;48.456;-4.456;2022-09-30T02:39:41;1.00;;;1.00;;
74177;SDS011;62540;48.456;-4.456;2022-09-30T02:42:17;2.75;;;0.00;;
74177;SDS011;62540;48.456;-4.456;2022-09-30T02:44:49;3.00;;;2.50;;
74177;SDS011;62540;48.456;-4.456;2022-09-30T02:47:24;3.00;;;3.00;;
74177;SDS011;62540;48.456;-4.456;2022-09-30T02:53:03;2.00;;;2.00;;
74177;SDS011;62540;48.456;-4.456;2022-09-30T02:56:18;2.25;;;2.00;;
74177;SDS011;62540;48.456;-4.456;2022-09-30T02:58:41;2.50;;;2.50;;
74177;SDS011;62540;48.456;-4.456;2022-09-30T03:01:08;4.00;;;2.00;;
74177;SDS011;62540;48.456;-4.456;2022-09-30T03:03:41;3.00;;;3.00;;
74177;SDS011;62540;48.456;-4.456;2022-09-30T03:06:09;2.50;;;2.50;;
74177;SDS011;62540;48.456;-4.456;2022-09-30T03:08:36;2.00;;;2.00;;
74177;SDS011;62540;48.456;-4.456;2022-09-30T03:11:01;3.00;;;3.00;;
74177;SDS011;62540;48.456;-4.456;2022-09-30T03:30:33;3.00;;;3.00;;
74177;SDS011;62540;48.456;-4.456;2022-09-30T03:44:01;3.50;;;3.50;;
74177;SDS011;62540;48.456;-4.456;2022-09-30T03:46:38;3.00;;;2.75;;
74177;SDS011;62540;48.456;-4.456;2022-09-30T03:49:23;4.00;;;3.00;;
74177;SDS011;62540;48.456;-4.456;2022-09-30T03:51:54;5.00;;;3.25;;
74177;SDS011;62540;48.456;-4.456;2022-09-30T03:54:21;3.00;;;3.00;;
74177;SDS011;62540;48.456;-4.456;2022-09-30T03:56:47;5.75;;;4.00;;
74177;SDS011;62540;48.456;-4.456;2022-09-30T03:59:16;3.00;;;3.00;;
74177;SDS011;62540;48.456;-4.456;2022-09-30T04:01:47;3.00;;;3.00;;
74177;SDS011;62540;48.456;-4.456;2022-09-30T04:04:12;4.00;;;3.00;;
74177;SDS011;62540;48.456;-4.456;2022-09-30T04:06:38;2.50;;;2.50;;
74177;SDS011;62540;48.456;-4.456;2022-09-30T04:09:03;3.25;;;3.00;;
74177;SDS011;62540;48.456;-4.456;2022-09-30T04:11:28;5.75;;;5.00;;
74177;SDS011;62540;48.456;-4.456;2022-09-30T04:13:54;5.00;;;4.00;;
74177;SDS011;62540;48.456;-4.456;2022-09-30T04:16:19;4.00;;;3.75;;
74177;SDS011;62540;48.456;-4.456;2022-09-30T04:18:45;4.50;;;3.00;;
74177;SDS011;62540;48.456;-4.456;2022-09-30T04:21:11;3.50;;;3.25;;
74177;SDS011;62540;48.456;-4.456;2022-09-30T04:23:38;6.25;;;5.00;;
74177;SDS011;62540;48.456;-4.456;2022-09-30T04:26:06;7.00;;;4.50;;
74177;SDS011;62540;48.456;-4.456;2022-09-30T04:28:34;4.50;;;4.50;;
74177;SDS011;62540;48.456;-4.456;2022-09-30T04:31:00;6.50;;;5.00;;
74177;SDS011;62540;48.456;-4.456;2022-09-30T04:33:27;6.50;;;5.00;;
74177;SDS011;62540;48.456;-4.456;2022-09-30T04:35:53;6.00;;;4.00;;
74177;SDS011;62540;48.456;-4.456;2022-09-30T04:38:20;7.00;;;5.00;;
74177;SDS011;62540;48.456;-4.456;2022-09-30T04:40:45;6.50;;;6.00;;
74177;SDS011;62540;48.456;-4.456;2022-09-30T04:43:13;5.75;;;5.25;;
74177;SDS011;62540;48.456;-4.456;2022-09-30T04:45:41;6.75;;;4.25;;
74177;SDS011;62540;48.456;-4.456;2022-09-30T04:48:08;6.50;;;4.25;;
74177;SDS011;62540;48.456;-4.456;2022-09-30T04:50:33;7.25;;;6.00;;
74177;SDS011;62540;48.456;-4.456;2022-09-30T04:52:59;9.00;;;6.00;;
74177;SDS011;62540;48.456;-4.456;2022-09-30T04:55:24;7.25;;;4.25;;
74177;SDS011;62540;48.456;-4.456;2022-09-30T04:57:50;5.75;;;4.25;;
74177;SDS011;62540;48.456;-4.456;2022-09-30T05:00:15;8.00;;;7.00;;
74177;SDS011;62540;48.456;-4.456;2022-09-30T05:02:44;5.75;;;5.25;;
74177;SDS011;62540;48.456;-4.456;2022-09-30T05:05:09;5.25;;;3.75;;
74177;SDS011;62540;48.456;-4.456;2022-09-30T05:07:35;6.50;;;4.00;;
74177;SDS011;62540;48.456;-4.456;2022-09-30T05:10:00;4.75;;;4.75;;
74177;SDS011;62540;48.456;-4.456;2022-09-30T05:12:25;6.00;;;4.75;;
74177;SDS011;62540;48.456;-4.456;2022-09-30T05:14:51;5.00;;;5.00;;
74177;SDS011;62540;48.456;-4.456;2022-09-30T05:17:16;6.00;;;4.00;;
74177;SDS011;62540;48.456;-4.456;2022-09-30T05:19:42;6.00;;;4.25;;
74177;SDS011;62540;48.456;-4.456;2022-09-30T05:22:07;7.75;;;6.50;;
74177;SDS011;62540;48.456;-4.456;2022-09-30T05:24:33;6.00;;;4.75;;
74177;SDS011;62540;48.456;-4.456;2022-09-30T05:26:58;7.00;;;5.75;;
74177;SDS011;62540;48.456;-4.456;2022-09-30T05:29:23;6.25;;;5.75;;
74177;SDS011;62540;48.456;-4.456;2022-09-30T05:31:49;8.00;;;6.25;;
74177;SDS011;62540;48.456;-4.456;2022-09-30T05:34:14;7.00;;;6.00;;
74177;SDS011;62540;48.456;-4.456;2022-09-30T05:36:41;7.00;;;5.00;;
74177;SDS011;62540;48.456;-4.456;2022-09-30T05:39:08;7.00;;;6.00;;
74177;SDS011;62540;48.456;-4.456;2022-09-30T05:41:34;10.00;;;7.25;;
74177;SDS011;62540;48.456;-4.456;2022-09-30T05:44:00;5.00;;;5.00;;
74177;SDS011;62540;48.456;-4.456;2022-09-30T05:46:25;6.75;;;6.25;;
74177;SDS011;62540;48.456;-4.456;2022-09-30T05:48:52;6.75;;;6.50;;
74177;SDS011;62540;48.456;-4.456;2022-09-30T05:51:21;8.00;;;6.75;;
74177;SDS011;62540;48.456;-4.456;2022-09-30T05:53:47;7.25;;;6.75;;
74177;SDS011;62540;48.456;-4.456;2022-09-30T05:56:12;8.50;;;6.75;;
74177;SDS011;62540;48.456;-4.456;2022-09-30T05:58:38;5.00;;;5.00;;
74177;SDS011;62540;48.456;-4.456;2022-09-30T06:01:08;4.00;;;3.00;;
74177;SDS011;62540;48.456;-4.456;2022-09-30T06:03:38;2.25;;;2.25;;
74177;SDS011;62540;48.456;-4.456;2022-09-30T06:06:04;4.00;;;3.00;;
74177;SDS011;62540;48.456;-4.456;2022-09-30T06:08:31;6.00;;;4.00;;
74177;SDS011;62540;48.456;-4.456;2022-09-30T06:10:56;6.00;;;4.50;;
74177;SDS011;62540;48.456;-4.456;2022-09-30T06:13:25;4.00;;;3.50;;
74177;SDS011;62540;48.456;-4.456;2022-09-30T06:15:58;4.75;;;4.25;;
74177;SDS011;62540;48.456;-4.456;2022-09-30T06:18:25;4.00;;;4.00;;
74177;SDS011;62540;48.456;-4.456;2022-09-30T06:20:55;3.75;;;2.50;;
74177;SDS011;62540;48.456;-4.456;2022-09-30T06:23:24;4.00;;;4.00;;
74177;SDS011;62540;48.456;-4.456;2022-09-30T06:25:50;5.25;;;4.75;;
74177;SDS011;62540;48.456;-4.456;2022-09-30T06:28:16;3.00;;;3.00;;
74177;SDS011;62540;48.456;-4.456;2022-09-30T06:30:42;5.00;;;3.50;;
74177;SDS011;62540;48.456;-4.456;2022-09-30T06:33:08;7.50;;;5.75;;
74177;SDS011;62540;48.456;-4.456;2022-09-30T06:35:33;4.75;;;4.00;;
74177;SDS011;62540;48.456;-4.456;2022-09-30T06:37:59;4.75;;;4.00;;
74177;SDS011;62540;48.456;-4.456;2022-09-30T06:40:24;4.00;;;4.00;;
74177;SDS011;62540;48.456;-4.456;2022-09-30T06:42:50;4.50;;;3.50;;
74177;SDS011;62540;48.456;-4.456;2022-09-30T06:45:15;4.00;;;3.00;;
74177;SDS011;62540;48.456;-4.456;2022-09-30T06:47:46;4.00;;;3.75;;
74177;SDS011;62540;48.456;-4.456;2022-09-30T06:50:12;5.00;;;2.00;;
74177;SDS011;62540;48.456;-4.456;2022-09-30T06:52:37;4.25;;;4.00;;
74177;SDS011;62540;48.456;-4.456;2022-09-30T06:55:03;4.00;;;3.50;;
74177;SDS011;62540;48.456;-4.456;2022-09-30T06:57:28;8.25;;;3.50;;
74177;SDS011;62540;48.456;-4.456;2022-09-30T06:59:54;7.00;;;4.00;;
74177;SDS011;62540;48.456;-4.456;2022-09-30T07:02:20;6.75;;;6.00;;
74177;SDS011;62540;48.456;-4.456;2022-09-30T07:04:45;6.25;;;5.00;;
74177;SDS011;62540;48.456;-4.456;2022-09-30T07:07:11;5.25;;;5.25;;
74177;SDS011;62540;48.456;-4.456;2022-09-30T07:09:37;7.75;;;7.50;;
74177;SDS011;62540;48.456;-4.456;2022-09-30T07:12:02;7.75;;;7.00;;
74177;SDS011;62540;48.456;-4.456;2022-09-30T07:14:30;9.00;;;6.00;;
74177;SDS011;62540;48.456;-4.456;2022-09-30T07:16:56;9.50;;;6.00;;
74177;SDS011;62540;48.456;-4.456;2022-09-30T07:19:22;10.00;;;7.75;;
74177;SDS011;62540;48.456;-4.456;2022-09-30T07:21:48;7.75;;;7.00;;
74177;SDS011;62540;48.456;-4.456;2022-09-30T07:24:14;7.75;;;7.50;;
74177;SDS011;62540;48.456;-4.456;2022-09-30T07:26:39;12.00;;;9.00;;
74177;SDS011;62540;48.456;-4.456;2022-09-30T07:29:05;8.25;;;8.25;;
74177;SDS011;62540;48.456;-4.456;2022-09-30T07:31:31;13.50;;;10.75;;
74177;SDS011;62540;48.456;-4.456;2022-09-30T07:33:58;10.50;;;9.25;;
74177;SDS011;62540;48.456;-4.456;2022-09-30T07:36:24;9.25;;;7.75;;
74177;SDS011;62540;48.456;-4.456;2022-09-30T07:39:00;14.50;;;10.00;;
74177;SDS011;62540;48.456;-4.456;2022-09-30T07:41:29;10.00;;;9.25;;
74177;SDS011;62540;48.456;-4.456;2022-09-30T07:43:55;9.50;;;9.00;;
74177;SDS011;62540;48.456;-4.456;2022-09-30T07:46:24;11.25;;;9.00;;
74177;SDS011;62540;48.456;-4.456;2022-09-30T07:48:53;11.75;;;10.25;;
74177;SDS011;62540;48.456;-4.456;2022-09-30T07:54:02;13.25;;;10.75;;
74177;SDS011;62540;48.456;-4.456;2022-09-30T07:56:30;11.25;;;10.75;;
74177;SDS011;62540;48.456;-4.456;2022-09-30T07:58:57;9.00;;;8.75;;
74177;SDS011;62540;48.456;-4.456;2022-09-30T08:01:25;14.75;;;11.00;;
74177;SDS011;62540;48.456;-4.456;2022-09-30T08:03:55;9.50;;;8.50;;
74177;SDS011;62540;48.456;-4.456;2022-09-30T08:06:23;11.00;;;10.75;;
74177;SDS011;62540;48.456;-4.456;2022-09-30T08:08:51;11.25;;;11.00;;
74177;SDS011;62540;48.456;-4.456;2022-09-30T08:11:17;9.50;;;9.00;;
74177;SDS011;62540;48.456;-4.456;2022-09-30T08:13:43;11.00;;;10.00;;
74177;SDS011;62540;48.456;-4.456;2022-09-30T08:16:08;10.00;;;9.75;;
74177;SDS011;62540;48.456;-4.456;2022-09-30T08:18:34;12.75;;;9.25;;
74177;SDS011;62540;48.456;-4.456;2022-09-30T08:21:03;8.00;;;7.50;;
74177;SDS011;62540;48.456;-4.456;2022-09-30T08:23:30;9.75;;;8.25;;
74177;SDS011;62540;48.456;-4.456;2022-09-30T08:26:03;14.00;;;12.50;;
74177;SDS011;62540;48.456;-4.456;2022-09-30T08:28:33;11.50;;;9.75;;
74177;SDS011;62540;48.456;-4.456;2022-09-30T08:31:06;9.25;;;8.25;;
74177;SDS011;62540;48.456;-4.456;2022-09-30T08:33:37;7.75;;;7.75;;
74177;SDS011;62540;48.456;-4.456;2022-09-30T08:36:13;11.50;;;8.25;;
74177;SDS011;62540;48.456;-4.456;2022-09-30T08:38:40;8.75;;;8.00;;
74177;SDS011;62540;48.456;-4.456;2022-09-30T08:53:40;7.75;;;7.00;;
74177;SDS011;62540;48.456;-4.456;2022-09-30T08:56:07;6.25;;;5.25;;
74177;SDS011;62540;48.456;-4.456;2022-09-30T08:58:43;7.50;;;5.25;;
74177;SDS011;62540;48.456;-4.456;2022-09-30T09:03:43;5.50;;;4.00;;
74177;SDS011;62540;48.456;-4.456;2022-09-30T09:15:02;7.25;;;6.25;;
74177;SDS011;62540;48.456;-4.456;2022-09-30T09:17:49;6.75;;;5.50;;
74177;SDS011;62540;48.456;-4.456;2022-09-30T09:20:22;5.75;;;4.25;;
74177;SDS011;62540;48.456;-4.456;2022-09-30T09:22:56;9.00;;;7.00;;
74177;SDS011;62540;48.456;-4.456;2022-09-30T09:25:25;6.00;;;5.50;;
74177;SDS011;62540;48.456;-4.456;2022-09-30T09:30:23;7.50;;;5.25;;
74177;SDS011;62540;48.456;-4.456;2022-09-30T09:32:51;7.25;;;4.50;;
74177;SDS011;62540;48.456;-4.456;2022-09-30T09:35:26;7.25;;;4.25;;
74177;SDS011;62540;48.456;-4.456;2022-09-30T09:38:00;4.00;;;3.00;;
74177;SDS011;62540;48.456;-4.456;2022-09-30T09:43:46;4.50;;;3.00;;
74177;SDS011;62540;48.456;-4.456;2022-09-30T09:52:13;6.00;;;5.00;;
74177;SDS011;62540;48.456;-4.456;2022-09-30T09:54:53;3.25;;;2.50;;
74177;SDS011;62540;48.456;-4.456;2022-09-30T09:57:21;4.00;;;2.00;;
74177;SDS011;62540;48.456;-4.456;2022-09-30T10:00:02;3.50;;;3.00;;
74177;SDS011;62540;48.456;-4.456;2022-09-30T10:03:02;2.00;;;1.00;;
74177;SDS011;62540;48.456;-4.456;2022-09-30T10:05:37;2.25;;;2.00;;
74177;SDS011;62540;48.456;-4.456;2022-09-30T10:08:10;2.75;;;2.75;;
74177;SDS011;62540;48.456;-4.456;2022-09-30T10:10:43;3.00;;;2.00;;
74177;SDS011;62540;48.456;-4.456;2022-09-30T10:13:16;2.25;;;2.25;;
74177;SDS011;62540;48.456;-4.456;2022-09-30T10:15:54;3.00;;;2.00;;
74177;SDS011;62540;48.456;-4.456;2022-09-30T10:18:28;2.75;;;2.00;;
74177;SDS011;62540;48.456;-4.456;2022-09-30T10:20:57;2.75;;;2.25;;
74177;SDS011;62540;48.456;-4.456;2022-09-30T10:23:27;2.00;;;2.00;;
74177;SDS011;62540;48.456;-4.456;2022-09-30T10:29:01;2.50;;;1.00;;
74177;SDS011;62540;48.456;-4.456;2022-09-30T10:31:36;1.25;;;0.00;;
74177;SDS011;62540;48.456;-4.456;2022-09-30T10:36:50;1.00;;;1.00;;
74177;SDS011;62540;48.456;-4.456;2022-09-30T10:41:48;0.00;;;0.00;;
74177;SDS011;62540;48.456;-4.456;2022-09-30T10:44:18;1.00;;;1.00;;
74177;SDS011;62540;48.456;-4.456;2022-09-30T10:46:47;1.00;;;1.00;;
74177;SDS011;62540;48.456;-4.456;2022-09-30T10:49:23;1.00;;;0.25;;
74177;SDS011;62540;48.456;-4.456;2022-09-30T10:51:53;2.50;;;0.75;;
74177;SDS011;62540;48.456;-4.456;2022-09-30T10:54:34;0.75;;;0.75;;
74177;SDS011;62540;48.456;-4.456;2022-09-30T10:57:17;1.00;;;1.00;;
74177;SDS011;62540;48.456;-4.456;2022-09-30T11:00:17;0.50;;;0.50;;
74177;SDS011;62540;48.456;-4.456;2022-09-30T11:05:38;1.00;;;0.00;;
74177;SDS011;62540;48.456;-4.456;2022-09-30T11:24:48;1.00;;;0.00;;
74177;SDS011;62540;48.456;-4.456;2022-09-30T11:27:22;1.00;;;0.00;;
74177;SDS011;62540;48.456;-4.456;2022-09-30T11:30:16;1.00;;;0.00;;
74177;SDS011;62540;48.456;-4.456;2022-09-30T11:32:48;0.75;;;0.00;;
74177;SDS011;62540;48.456;-4.456;2022-09-30T11:41:02;0.00;;;0.00;;
74177;SDS011;62540;48.456;-4.456;2022-09-30T11:43:51;0.25;;;0.00;;
74177;SDS011;62540;48.456;-4.456;2022-09-30T11:54:56;0.25;;;0.00;;
74177;SDS011;62540;48.456;-4.456;2022-09-30T11:57:39;1.00;;;0.00;;
74177;SDS011;62540;48.456;-4.456;2022-09-30T12:00:15;0.75;;;0.00;;
74177;SDS011;62540;48.456;-4.456;2022-09-30T12:02:49;0.00;;;0.00;;
74177;SDS011;62540;48.456;-4.456;2022-09-30T12:05:30;1.00;;;0.00;;
74177;SDS011;62540;48.456;-4.456;2022-09-30T12:08:02;1.00;;;0.00;;
74177;SDS011;62540;48.456;-4.456;2022-09-30T12:10:37;0.25;;;0.25;;
74177;SDS011;62540;48.456;-4.456;2022-09-30T12:13:43;0.00;;;0.00;;
74177;SDS011;62540;48.456;-4.456;2022-09-30T12:16:08;1.00;;;1.00;;
74177;SDS011;62540;48.456;-4.456;2022-09-30T12:18:41;1.00;;;0.00;;
74177;SDS011;62540;48.456;-4.456;2022-09-30T12:21:19;8.25;;;6.50;;
74177;SDS011;62540;48.456;-4.456;2022-09-30T12:23:48;1.00;;;1.00;;
74177;SDS011;62540;48.456;-4.456;2022-09-30T12:26:18;1.00;;;0.25;;
74177;SDS011;62540;48.456;-4.456;2022-09-30T12:28:58;0.00;;;0.00;;
74177;SDS011;62540;48.456;-4.456;2022-09-30T12:45:57;0.00;;;0.00;;
74177;SDS011;62540;48.456;-4.456;2022-09-30T12:48:25;0.25;;;0.00;;
74177;SDS011;62540;48.456;-4.456;2022-09-30T12:50:58;0.00;;;0.00;;
74177;SDS011;62540;48.456;-4.456;2022-09-30T12:53:27;0.00;;;0.00;;
74177;SDS011;62540;48.456;-4.456;2022-09-30T12:56:05;1.00;;;0.00;;
74177;SDS011;62540;48.456;-4.456;2022-09-30T12:58:37;0.00;;;0.00;;
74177;SDS011;62540;48.456;-4.456;2022-09-30T13:06:24;0.50;;;0.00;;
74177;SDS011;62540;48.456;-4.456;2022-09-30T13:19:38;0.25;;;0.00;;
74177;SDS011;62540;48.456;-4.456;2022-09-30T13:27:37;0.00;;;0.00;;
74177;SDS011;62540;48.456;-4.456;2022-09-30T13:30:30;0.00;;;0.00;;
74177;SDS011;62540;48.456;-4.456;2022-09-30T13:40:54;0.25;;;0.00;;
74177;SDS011;62540;48.456;-4.456;2022-09-30T13:45:56;0.00;;;0.00;;
74177;SDS011;62540;48.456;-4.456;2022-09-30T13:48:32;0.75;;;0.00;;
74177;SDS011;62540;48.456;-4.456;2022-09-30T13:51:02;0.00;;;0.00;;
74177;SDS011;62540;48.456;-4.456;2022-09-30T13:54:05;0.50;;;0.50;;
74177;SDS011;62540;48.456;-4.456;2022-09-30T13:56:34;1.25;;;0.75;;
74177;SDS011;62540;48.456;-4.456;2022-09-30T14:24:24;1.00;;;0.50;;
74177;SDS011;62540;48.456;-4.456;2022-09-30T14:32:19;0.00;;;0.00;;
74177;SDS011;62540;48.456;-4.456;2022-09-30T14:34:49;0.00;;;0.00;;
74177;SDS011;62540;48.456;-4.456;2022-09-30T14:37:18;0.00;;;0.00;;
74177;SDS011;62540;48.456;-4.456;2022-09-30T14:39:50;2.00;;;1.00;;
74177;SDS011;62540;48.456;-4.456;2022-09-30T14:42:19;2.00;;;1.00;;
74177;SDS011;62540;48.456;-4.456;2022-09-30T14:44:49;1.00;;;1.00;;
74177;SDS011;62540;48.456;-4.456;2022-09-30T14:47:18;0.00;;;0.00;;
74177;SDS011;62540;48.456;-4.456;2022-09-30T14:49:47;0.00;;;0.00;;
74177;SDS011;62540;48.456;-4.456;2022-09-30T14:55:02;1.00;;;1.00;;
74177;SDS011;62540;48.456;-4.456;2022-09-30T14:57:28;1.50;;;0.00;;
74177;SDS011;62540;48.456;-4.456;2022-09-30T15:02:43;1.25;;;0.75;;
74177;SDS011;62540;48.456;-4.456;2022-09-30T15:05:11;2.00;;;0.75;;
74177;SDS011;62540;48.456;-4.456;2022-09-30T15:07:39;1.50;;;1.00;;
74177;SDS011;62540;48.456;-4.456;2022-09-30T15:10:05;0.75;;;0.75;;
74177;SDS011;62540;48.456;-4.456;2022-09-30T15:12:31;0.00;;;0.00;;
74177;SDS011;62540;48.456;-4.456;2022-09-30T15:15:01;1.25;;;1.00;;
74177;SDS011;62540;48.456;-4.456;2022-09-30T15:17:48;1.00;;;0.50;;
74177;SDS011;62540;48.456;-4.456;2022-09-30T15:20:37;1.25;;;1.25;;
74177;SDS011;62540;48.456;-4.456;2022-09-30T15:23:02;2.25;;;1.50;;
74177;SDS011;62540;48.456;-4.456;2022-09-30T15:25:33;1.50;;;0.75;;
74177;SDS011;62540;48.456;-4.456;2022-09-30T15:27:59;1.75;;;0.75;;
74177;SDS011;62540;48.456;-4.456;2022-09-30T15:30:26;2.75;;;1.00;;
74177;SDS011;62540;48.456;-4.456;2022-09-30T15:32:57;2.00;;;0.75;;
74177;SDS011;62540;48.456;-4.456;2022-09-30T15:35:24;1.00;;;1.00;;
74177;SDS011;62540;48.456;-4.456;2022-09-30T15:37:50;3.25;;;1.50;;
74177;SDS011;62540;48.456;-4.456;2022-09-30T15:40:20;4.00;;;1.00;;
74177;SDS011;62540;48.456;-4.456;2022-09-30T15:43:07;4.75;;;2.00;;
74177;SDS011;62540;48.456;-4.456;2022-09-30T15:45:36;2.75;;;2.25;;
74177;SDS011;62540;48.456;-4.456;2022-09-30T15:50:54;2.25;;;1.00;;
74177;SDS011;62540;48.456;-4.456;2022-09-30T15:53:24;1.75;;;1.00;;
74177;SDS011;62540;48.456;-4.456;2022-09-30T15:55:59;1.50;;;1.25;;
74177;SDS011;62540;48.456;-4.456;2022-09-30T15:58:39;1.00;;;1.00;;
74177;SDS011;62540;48.456;-4.456;2022-09-30T16:01:13;4.00;;;2.50;;
74177;SDS011;62540;48.456;-4.456;2022-09-30T16:03:55;2.25;;;2.00;;
74177;SDS011;62540;48.456;-4.456;2022-09-30T16:08:57;2.25;;;2.00;;
74177;SDS011;62540;48.456;-4.456;2022-09-30T16:11:36;3.50;;;2.25;;
74177;SDS011;62540;48.456;-4.456;2022-09-30T16:14:07;2.00;;;1.50;;
74177;SDS011;62540;48.456;-4.456;2022-09-30T16:16:35;3.00;;;3.00;;
74177;SDS011;62540;48.456;-4.456;2022-09-30T16:19:02;2.75;;;2.00;;
74177;SDS011;62540;48.456;-4.456;2022-09-30T16:26:51;3.00;;;2.00;;
74177;SDS011;62540;48.456;-4.456;2022-09-30T16:29:19;2.75;;;1.50;;
74177;SDS011;62540;48.456;-4.456;2022-09-30T16:31:46;2.00;;;1.50;;
74177;SDS011;62540;48.456;-4.456;2022-09-30T16:34:18;2.75;;;1.75;;
74177;SDS011;62540;48.456;-4.456;2022-09-30T16:36:47;2.00;;;1.25;;
74177;SDS011;62540;48.456;-4.456;2022-09-30T16:39:14;1.75;;;1.00;;
74177;SDS011;62540;48.456;-4.456;2022-09-30T16:41:40;0.00;;;0.00;;
74177;SDS011;62540;48.456;-4.456;2022-09-30T16:44:07;2.75;;;1.75;;
74177;SDS011;62540;48.456;-4.456;2022-09-30T16:46:33;2.00;;;2.00;;
74177;SDS011;62540;48.456;-4.456;2022-09-30T16:48:59;2.75;;;2.00;;
74177;SDS011;62540;48.456;-4.456;2022-09-30T16:51:35;0.75;;;0.75;;
74177;SDS011;62540;48.456;-4.456;2022-09-30T16:54:00;4.00;;;3.00;;
74177;SDS011;62540;48.456;-4.456;2022-09-30T16:56:26;6.25;;;3.75;;
74177;SDS011;62540;48.456;-4.456;2022-09-30T16:58:52;2.00;;;1.75;;
74177;SDS011;62540;48.456;-4.456;2022-09-30T17:01:18;2.50;;;2.00;;
74177;SDS011;62540;48.456;-4.456;2022-09-30T17:03:45;2.00;;;1.50;;
74177;SDS011;62540;48.456;-4.456;2022-09-30T17:06:11;2.50;;;2.50;;
74177;SDS011;62540;48.456;-4.456;2022-09-30T17:08:37;1.50;;;1.50;;
74177;SDS011;62540;48.456;-4.456;2022-09-30T17:11:02;1.50;;;1.00;;
74177;SDS011;62540;48.456;-4.456;2022-09-30T17:13:27;2.00;;;1.00;;
74177;SDS011;62540;48.456;-4.456;2022-09-30T17:15:54;1.50;;;1.50;;
74177;SDS011;62540;48.456;-4.456;2022-09-30T17:18:20;2.00;;;1.00;;
74177;SDS011;62540;48.456;-4.456;2022-09-30T17:20:46;3.75;;;2.00;;
74177;SDS011;62540;48.456;-4.456;2022-09-30T17:23:19;2.50;;;1.75;;
74177;SDS011;62540;48.456;-4.456;2022-09-30T17:25:46;0.00;;;0.00;;
74177;SDS011;62540;48.456;-4.456;2022-09-30T17:28:12;0.25;;;0.25;;
74177;SDS011;62540;48.456;-4.456;2022-09-30T17:30:39;0.25;;;0.00;;
74177;SDS011;62540;48.456;-4.456;2022-09-30T17:33:05;2.00;;;1.75;;
74177;SDS011;62540;48.456;-4.456;2022-09-30T17:35:33;0.00;;;0.00;;
74177;SDS011;62540;48.456;-4.456;2022-09-30T17:38:00;1.50;;;1.00;;
74177;SDS011;62540;48.456;-4.456;2022-09-30T17:40:25;1.50;;;1.00;;
74177;SDS011;62540;48.456;-4.456;2022-09-30T17:43:10;2.25;;;1.25;;
74177;SDS011;62540;48.456;-4.456;2022-09-30T17:45:36;1.50;;;1.00;;
74177;SDS011;62540;48.456;-4.456;2022-09-30T17:48:05;1.75;;;1.25;;
74177;SDS011;62540;48.456;-4.456;2022-09-30T17:50:31;0.00;;;0.00;;
74177;SDS011;62540;48.456;-4.456;2022-09-30T17:52:58;2.00;;;0.50;;
74177;SDS011;62540;48.456;-4.456;2022-09-30T17:55:23;2.50;;;1.75;;
74177;SDS011;62540;48.456;-4.456;2022-09-30T17:57:49;1.00;;;0.00;;
74177;SDS011;62540;48.456;-4.456;2022-09-30T18:00:14;1.00;;;0.50;;
74177;SDS011;62540;48.456;-4.456;2022-09-30T18:02:41;0.00;;;0.00;;
74177;SDS011;62540;48.456;-4.456;2022-09-30T18:05:08;3.00;;;1.00;;
74177;SDS011;62540;48.456;-4.456;2022-09-30T18:07:34;1.75;;;1.00;;
74177;SDS011;62540;48.456;-4.456;2022-09-30T18:09:59;0.00;;;0.00;;
74177;SDS011;62540;48.456;-4.456;2022-09-30T18:12:26;1.50;;;0.75;;
74177;SDS011;62540;48.456;-4.456;2022-09-30T18:14:52;1.00;;;1.00;;
74177;SDS011;62540;48.456;-4.456;2022-09-30T18:17:19;2.00;;;1.00;;
74177;SDS011;62540;48.456;-4.456;2022-09-30T18:19:44;1.25;;;1.25;;
74177;SDS011;62540;48.456;-4.456;2022-09-30T18:22:09;1.00;;;1.00;;
74177;SDS011;62540;48.456;-4.456;2022-09-30T18:24:35;1.75;;;1.75;;
74177;SDS011;62540;48.456;-4.456;2022-09-30T18:27:19;3.25;;;2.00;;
74177;SDS011;62540;48.456;-4.456;2022-09-30T18:29:46;2.00;;;1.00;;
74177;SDS011;62540;48.456;-4.456;2022-09-30T18:32:12;1.00;;;1.00;;
74177;SDS011;62540;48.456;-4.456;2022-09-30T18:34:37;2.00;;;1.00;;
74177;SDS011;62540;48.456;-4.456;2022-09-30T18:37:03;2.00;;;2.00;;
74177;SDS011;62540;48.456;-4.456;2022-09-30T18:39:30;2.00;;;1.00;;
74177;SDS011;62540;48.456;-4.456;2022-09-30T18:41:57;1.00;;;1.00;;